createdAt,value
2023-03-19T00:00:43.257Z,13.20
2023-03-19T00:03:09.944Z,12.70
2023-03-19T00:05:36.546Z,12.48
2023-03-19T00:08:03.182Z,13.05
2023-03-19T00:10:29.777Z,12.88
2023-03-19T00:12:56.656Z,13.20
2023-03-19T00:15:23.517Z,12.70
2023-03-19T00:17:50.151Z,12.70
2023-03-19T00:20:18.263Z,12.27
2023-03-19T00:23:09.194Z,12.82
2023-03-19T00:25:36.231Z,12.73
2023-03-19T00:28:02.803Z,12.95
2023-03-19T00:30:29.529Z,12.55
2023-03-19T00:32:57.830Z,13.82
2023-03-19T00:35:24.687Z,13.98
2023-03-19T00:37:51.256Z,12.80
2023-03-19T00:40:17.826Z,12.23
2023-03-19T00:42:44.942Z,12.90
2023-03-19T00:45:12.849Z,12.32
2023-03-19T00:47:39.450Z,12.35
2023-03-19T00:50:07.105Z,11.95
2023-03-19T00:52:33.671Z,12.80
2023-03-19T00:55:00.209Z,12.48
2023-03-19T00:57:27.022Z,12.50
2023-03-19T00:59:53.612Z,13.02
2023-03-19T01:02:20.403Z,12.35
2023-03-19T01:04:49.877Z,12.37
2023-03-19T01:07:16.765Z,11.88
2023-03-19T01:09:43.586Z,12.35
2023-03-19T01:12:10.236Z,11.02
2023-03-19T01:14:36.837Z,12.90
2023-03-19T01:17:03.503Z,11.90
2023-03-19T01:19:30.329Z,11.57
2023-03-19T01:21:56.896Z,13.00
2023-03-19T01:24:30.210Z,13.05
2023-03-19T01:26:56.803Z,12.75
2023-03-19T01:29:23.355Z,12.93
2023-03-19T01:31:49.923Z,13.07
2023-03-19T01:34:16.504Z,13.07
2023-03-19T01:36:43.085Z,12.98
2023-03-19T01:39:10.696Z,12.68
2023-03-19T01:41:37.303Z,13.30
2023-03-19T01:44:03.874Z,12.88
2023-03-19T01:46:38.551Z,11.82
2023-03-19T01:49:12.695Z,12.60
2023-03-19T01:51:45.803Z,11.35
2023-03-19T01:56:43.402Z,12.15
2023-03-19T01:59:21.627Z,12.93
2023-03-19T02:02:12.127Z,12.57
2023-03-19T02:04:40.253Z,12.50
2023-03-19T02:07:07.763Z,11.88
2023-03-19T02:09:34.418Z,12.32
2023-03-19T02:12:02.053Z,11.82
2023-03-19T02:14:28.737Z,11.68
2023-03-19T02:16:55.912Z,10.90
2023-03-19T02:19:43.281Z,11.98
2023-03-19T02:22:12.862Z,11.63
2023-03-19T02:24:53.546Z,11.70
2023-03-19T02:27:21.869Z,11.52
2023-03-19T02:29:49.437Z,11.27
2023-03-19T02:32:16.435Z,10.70
2023-03-19T02:34:44.114Z,10.70
2023-03-19T02:37:19.709Z,11.30
2023-03-19T02:40:09.125Z,11.00
2023-03-19T02:42:35.866Z,11.05
2023-03-19T02:45:02.464Z,10.73
2023-03-19T02:47:29.754Z,10.70
2023-03-19T02:49:56.457Z,10.93
2023-03-19T02:52:23.020Z,11.25
2023-03-19T02:54:49.687Z,11.55
2023-03-19T02:57:16.520Z,11.07
2023-03-19T02:59:43.270Z,10.95
2023-03-19T03:02:10.263Z,11.85
2023-03-19T03:04:39.659Z,10.73
2023-03-19T03:07:15.067Z,11.23
2023-03-19T03:09:42.119Z,10.48
2023-03-19T03:12:09.267Z,11.18
2023-03-19T03:14:36.048Z,10.95
2023-03-19T03:17:02.677Z,10.63
2023-03-19T03:19:29.237Z,11.60
2023-03-19T03:21:57.975Z,10.80
2023-03-19T03:24:24.523Z,10.60
2023-03-19T03:26:51.059Z,10.60
2023-03-19T03:29:18.227Z,11.73
2023-03-19T03:31:44.889Z,10.88
2023-03-19T03:34:11.581Z,10.38
2023-03-19T03:36:38.952Z,10.43
2023-03-19T03:39:06.619Z,10.48
2023-03-19T03:41:33.363Z,10.07
2023-03-19T03:44:00.016Z,9.95
2023-03-19T03:46:26.672Z,10.15
2023-03-19T03:48:53.253Z,10.10
2023-03-19T03:51:19.916Z,10.15
2023-03-19T03:53:46.494Z,10.00
2023-03-19T03:56:13.211Z,9.55
2023-03-19T03:58:40.148Z,10.13
2023-03-19T04:01:07.741Z,10.02
2023-03-19T04:03:34.794Z,9.20
2023-03-19T04:06:01.438Z,9.25
2023-03-19T04:24:33.223Z,9.80
2023-03-19T04:26:59.835Z,9.55
2023-03-19T04:29:27.306Z,9.25
2023-03-19T04:31:53.854Z,9.48
2023-03-19T04:34:20.978Z,8.68
2023-03-19T04:36:48.326Z,9.27
2023-03-19T04:39:16.250Z,11.00
2023-03-19T04:41:43.285Z,8.45
2023-03-19T04:44:09.979Z,8.20
2023-03-19T04:46:36.818Z,8.93
2023-03-19T04:49:04.501Z,8.73
2023-03-19T04:51:31.068Z,8.35
2023-03-19T04:53:57.668Z,8.20
2023-03-19T04:56:24.196Z,8.13
2023-03-19T04:58:50.782Z,10.00
2023-03-19T05:01:17.404Z,8.40
2023-03-19T05:03:44.113Z,8.82
2023-03-19T05:06:11.767Z,7.68
2023-03-19T05:08:38.344Z,7.55
2023-03-19T05:11:05.255Z,8.57
2023-03-19T05:13:31.846Z,8.35
2023-03-19T05:15:58.447Z,7.97
2023-03-19T05:18:26.097Z,7.80
2023-03-19T05:20:53.336Z,7.85
2023-03-19T05:23:20.301Z,7.47
2023-03-19T05:25:47.840Z,8.00
2023-03-19T05:28:14.621Z,8.02
2023-03-19T05:30:41.448Z,7.78
2023-03-19T05:33:08.743Z,7.28
2023-03-19T05:35:36.870Z,7.43
2023-03-19T05:38:07.455Z,7.03
2023-03-19T05:40:36.123Z,8.07
2023-03-19T05:43:02.899Z,8.30
2023-03-19T05:45:29.448Z,7.72
2023-03-19T05:47:57.295Z,8.10
2023-03-19T05:50:23.897Z,6.90
2023-03-19T05:52:50.459Z,7.05
2023-03-19T05:55:17.456Z,6.80
2023-03-19T05:57:44.161Z,7.57
2023-03-19T06:00:12.173Z,7.07
2023-03-19T06:02:39.015Z,6.62
2023-03-19T06:05:06.584Z,6.40
2023-03-19T06:07:33.125Z,6.68
2023-03-19T06:09:59.699Z,6.60
2023-03-19T06:12:26.417Z,6.47
2023-03-19T06:14:56.722Z,6.10
2023-03-19T06:17:24.640Z,6.05
2023-03-19T06:19:51.197Z,5.72
2023-03-19T06:22:17.729Z,6.18
2023-03-19T06:24:44.291Z,5.55
2023-03-19T06:27:11.136Z,5.90
2023-03-19T06:29:37.881Z,6.35
2023-03-19T06:32:04.816Z,5.80
2023-03-19T06:34:31.408Z,5.53
2023-03-19T06:36:57.943Z,5.85
2023-03-19T06:39:24.516Z,5.57
2023-03-19T06:41:51.388Z,6.60
2023-03-19T06:44:18.056Z,5.62
2023-03-19T06:46:44.977Z,6.28
2023-03-19T06:49:11.743Z,5.47
2023-03-19T06:51:38.410Z,6.25
2023-03-19T06:54:05.007Z,6.80
2023-03-19T06:56:31.533Z,5.25
2023-03-19T06:58:58.088Z,6.10
2023-03-19T07:01:24.723Z,5.87
2023-03-19T07:03:51.406Z,5.37
2023-03-19T07:06:22.102Z,5.40
2023-03-19T07:08:48.752Z,5.70
2023-03-19T07:11:16.587Z,5.57
2023-03-19T07:13:43.209Z,6.12
2023-03-19T07:16:10.262Z,5.72
2023-03-19T07:18:46.024Z,6.07
2023-03-19T07:21:15.588Z,5.57
2023-03-19T07:23:42.132Z,4.80
2023-03-19T07:26:08.672Z,5.28
2023-03-19T07:28:35.589Z,5.43
2023-03-19T07:31:02.165Z,5.43
2023-03-19T07:33:28.724Z,5.50
2023-03-19T07:35:55.460Z,5.40
2023-03-19T07:38:22.022Z,5.78
2023-03-19T07:41:01.392Z,5.43
2023-03-19T07:43:29.209Z,5.05
2023-03-19T07:45:56.010Z,5.10
2023-03-19T07:48:22.644Z,5.37
2023-03-19T07:50:51.340Z,5.62
2023-03-19T07:53:18.483Z,5.28
2023-03-19T07:55:45.319Z,4.43
2023-03-19T07:58:11.917Z,4.37
2023-03-19T08:00:38.511Z,3.97
2023-03-19T08:03:05.064Z,5.05
2023-03-19T08:05:31.638Z,4.37
2023-03-19T08:07:58.202Z,3.62
2023-03-19T08:10:24.877Z,3.90
2023-03-19T08:12:51.936Z,4.30
2023-03-19T08:15:18.725Z,4.12
2023-03-19T08:17:45.310Z,3.90
2023-03-19T08:20:16.444Z,3.60
2023-03-19T08:22:43.170Z,3.47
2023-03-19T08:25:10.671Z,3.67
2023-03-19T08:27:37.386Z,3.58
2023-03-19T08:30:08.685Z,4.15
2023-03-19T08:32:36.375Z,3.37
2023-03-19T08:35:04.463Z,3.60
2023-03-19T08:37:31.199Z,4.32
2023-03-19T08:39:57.956Z,4.07
2023-03-19T08:42:25.106Z,4.07
2023-03-19T08:44:51.648Z,3.95
2023-03-19T08:47:18.254Z,3.62
2023-03-19T08:49:44.870Z,3.97
2023-03-19T08:52:11.706Z,4.05
2023-03-19T08:54:38.273Z,3.50
2023-03-19T08:57:04.844Z,4.30
2023-03-19T08:59:34.039Z,3.50
2023-03-19T09:02:01.763Z,3.75
2023-03-19T09:04:29.312Z,3.78
2023-03-19T09:06:56.174Z,3.95
2023-03-19T09:09:24.247Z,3.80
2023-03-19T09:11:51.181Z,4.68
2023-03-19T09:14:19.983Z,4.40
2023-03-19T09:16:47.031Z,4.10
2023-03-19T09:19:13.693Z,4.18
2023-03-19T09:21:40.641Z,4.00
2023-03-19T09:24:07.397Z,3.60
2023-03-19T09:26:33.982Z,4.15
2023-03-19T09:29:02.186Z,4.15
2023-03-19T09:31:29.878Z,4.10
2023-03-19T09:33:56.792Z,4.25
2023-03-19T09:36:23.382Z,4.43
2023-03-19T09:38:49.976Z,3.97
2023-03-19T09:41:28.759Z,4.05
2023-03-19T09:44:02.469Z,3.80
2023-03-19T09:47:04.742Z,3.70
2023-03-19T09:49:38.060Z,3.47
2023-03-19T09:52:32.198Z,4.00
2023-03-19T09:55:12.210Z,4.12
2023-03-19T09:57:39.686Z,4.00
2023-03-19T10:00:22.479Z,4.47
2023-03-19T10:02:56.818Z,4.10
2023-03-19T10:05:41.657Z,4.20
2023-03-19T10:08:11.592Z,4.10
2023-03-19T10:10:56.624Z,4.25
2023-03-19T10:13:50.241Z,3.45
2023-03-19T10:16:24.127Z,3.78
2023-03-19T10:18:56.745Z,4.00
2023-03-19T10:21:27.507Z,4.10
2023-03-19T10:24:17.791Z,3.50
2023-03-19T10:26:45.907Z,4.00
2023-03-19T10:29:19.724Z,3.78
2023-03-19T10:32:14.237Z,3.47
2023-03-19T10:35:04.022Z,3.60
2023-03-19T10:37:30.798Z,3.47
2023-03-19T10:40:00.300Z,3.40
2023-03-19T10:42:39.462Z,3.90
2023-03-19T10:45:28.055Z,2.83
2023-03-19T10:47:57.683Z,3.45
2023-03-19T10:50:38.824Z,3.35
2023-03-19T10:53:14.417Z,3.40
2023-03-19T10:55:57.779Z,3.47
2023-03-19T10:58:27.475Z,3.75
2023-03-19T11:01:10.041Z,3.83
2023-03-19T11:03:51.146Z,3.28
2023-03-19T11:06:19.157Z,3.70
2023-03-19T11:09:03.079Z,3.30
2023-03-19T11:11:50.571Z,3.65
2023-03-19T11:14:32.735Z,3.05
2023-03-19T11:17:06.329Z,3.25
2023-03-19T11:19:41.015Z,3.20
2023-03-19T11:22:07.524Z,3.60
2023-03-19T11:24:37.913Z,3.55
2023-03-19T11:27:05.581Z,3.12
2023-03-19T11:29:34.285Z,3.12
2023-03-19T11:32:21.924Z,3.78
2023-03-19T11:35:29.033Z,3.33
2023-03-19T11:42:21.127Z,3.08
2023-03-19T11:45:00.635Z,3.28
2023-03-19T11:47:41.317Z,3.00
2023-03-19T11:50:31.265Z,2.87
2023-03-19T11:53:08.921Z,3.28
2023-03-19T11:55:57.291Z,3.80
2023-03-19T11:59:01.146Z,4.12
2023-03-19T12:02:06.911Z,3.58
2023-03-19T12:04:43.447Z,4.10
2023-03-19T12:07:28.898Z,3.45
2023-03-19T12:10:10.711Z,3.50
2023-03-19T12:12:49.470Z,3.20
2023-03-19T12:15:43.860Z,3.30
2023-03-19T12:18:20.355Z,2.80
2023-03-19T12:21:07.921Z,3.50
2023-03-19T12:23:55.320Z,4.22
2023-03-19T12:26:31.044Z,3.08
2023-03-19T12:29:16.733Z,3.28
2023-03-19T12:32:05.259Z,3.72
2023-03-19T12:34:39.617Z,3.97
2023-03-19T12:37:25.019Z,3.60
2023-03-19T12:40:02.125Z,3.85
2023-03-19T12:42:33.024Z,3.28
2023-03-19T12:45:04.782Z,3.50
2023-03-19T12:47:41.232Z,3.53
2023-03-19T12:50:11.627Z,3.65
2023-03-19T12:52:40.590Z,4.22
2023-03-19T12:55:09.764Z,3.78
2023-03-19T12:57:54.431Z,3.40
2023-03-19T13:00:40.808Z,4.87
2023-03-19T13:03:32.730Z,4.87
2023-03-19T13:06:12.676Z,4.30
2023-03-19T13:08:39.366Z,5.75
2023-03-19T13:11:13.706Z,4.53
2023-03-19T13:13:44.092Z,4.40
2023-03-19T13:16:29.873Z,3.75
2023-03-19T13:19:31.758Z,11.43
2023-03-19T13:22:04.441Z,4.70
2023-03-19T13:24:35.809Z,4.22
2023-03-19T13:27:03.169Z,3.20
2023-03-19T13:29:36.844Z,3.85
2023-03-19T13:32:27.319Z,4.93
2023-03-19T13:35:13.918Z,3.92
2023-03-19T13:37:44.350Z,3.80
2023-03-19T13:40:37.626Z,3.22
2023-03-19T13:43:04.349Z,7.60
2023-03-19T13:45:40.781Z,3.87
2023-03-19T13:48:39.025Z,4.05
2023-03-19T13:51:12.516Z,4.45
2023-03-19T13:53:55.196Z,4.97
2023-03-19T13:56:29.917Z,4.50
2023-03-19T13:59:15.365Z,3.65
2023-03-19T14:01:47.445Z,4.75
2023-03-19T14:04:30.713Z,4.07
2023-03-19T14:09:40.073Z,3.42
2023-03-19T14:12:11.738Z,3.70
2023-03-19T14:14:50.476Z,3.12
2023-03-19T14:17:22.337Z,3.70
2023-03-19T14:20:03.603Z,3.65
2023-03-19T14:22:38.599Z,7.10
2023-03-19T14:25:20.239Z,5.03
2023-03-19T14:28:11.108Z,3.72
2023-03-19T14:30:44.761Z,3.97
2023-03-19T14:33:26.759Z,3.60
2023-03-19T14:35:53.840Z,3.17
2023-03-19T14:38:36.985Z,4.28
2023-03-19T14:43:34.728Z,4.47
2023-03-19T14:46:04.185Z,4.15
2023-03-19T14:48:59.186Z,4.32
2023-03-19T14:51:47.869Z,4.10
2023-03-19T14:54:21.618Z,3.75
2023-03-19T14:56:48.803Z,3.75
2023-03-19T14:59:15.999Z,4.12
2023-03-19T15:01:49.959Z,4.10
2023-03-19T15:04:18.157Z,3.37
2023-03-19T15:06:53.544Z,3.62
2023-03-19T15:09:30.010Z,4.07
2023-03-19T15:12:23.173Z,3.85
2023-03-19T15:15:17.033Z,3.80
2023-03-19T15:17:51.645Z,3.40
2023-03-19T15:20:25.474Z,3.65
2023-03-19T15:22:57.468Z,4.12
2023-03-19T15:25:24.066Z,3.73
2023-03-19T15:28:08.998Z,3.85
2023-03-19T15:30:51.903Z,3.92
2023-03-19T15:33:38.892Z,3.90
2023-03-19T15:36:12.698Z,3.25
2023-03-19T15:38:54.857Z,3.58
2023-03-19T15:41:25.728Z,3.80
2023-03-19T15:43:53.175Z,3.70
2023-03-19T15:46:25.628Z,3.50
2023-03-19T15:49:06.512Z,4.15
2023-03-19T15:51:33.653Z,5.00
2023-03-19T15:54:01.692Z,4.30
2023-03-19T15:56:29.151Z,4.00
2023-03-19T15:58:58.005Z,3.80
2023-03-19T16:01:25.711Z,3.78
2023-03-19T16:03:58.735Z,4.37
2023-03-19T16:06:29.794Z,4.18
2023-03-19T16:09:13.652Z,4.43
2023-03-19T16:11:45.603Z,4.10
2023-03-19T16:14:32.411Z,3.90
2023-03-19T16:17:12.654Z,4.15
2023-03-19T16:19:52.309Z,3.92
2023-03-19T16:22:39.118Z,3.70
2023-03-19T16:25:18.790Z,3.50
2023-03-19T16:27:46.358Z,3.70
2023-03-19T16:30:21.604Z,4.03
2023-03-19T16:32:58.607Z,3.45
2023-03-19T16:35:25.420Z,3.83
2023-03-19T16:37:53.930Z,4.10
2023-03-19T16:40:23.792Z,3.50
2023-03-19T16:42:56.091Z,3.80
2023-03-19T16:45:28.049Z,4.18
2023-03-19T16:48:00.146Z,4.55
2023-03-19T16:50:36.297Z,5.62
2023-03-19T16:53:21.422Z,5.12
2023-03-19T16:55:48.460Z,5.90
2023-03-19T16:58:18.288Z,6.00
2023-03-19T17:00:46.186Z,7.65
2023-03-19T17:03:15.308Z,7.50
2023-03-19T17:05:42.541Z,7.65
2023-03-19T17:08:09.398Z,7.53
2023-03-19T17:10:37.934Z,7.37
2023-03-19T17:13:05.086Z,7.10
2023-03-19T17:15:36.503Z,7.22
2023-03-19T17:18:10.527Z,7.53
2023-03-19T17:20:42.256Z,8.20
2023-03-19T17:23:13.562Z,8.35
2023-03-19T17:25:47.620Z,9.45
2023-03-19T17:28:14.154Z,9.70
2023-03-19T17:30:40.884Z,9.27
2023-03-19T17:33:22.642Z,8.85
2023-03-19T17:35:49.332Z,9.00
2023-03-19T17:38:18.056Z,9.77
2023-03-19T17:40:44.942Z,10.70
2023-03-19T17:43:12.483Z,12.45
2023-03-19T17:45:42.637Z,12.32
2023-03-19T17:48:14.172Z,12.40
2023-03-19T17:50:40.746Z,12.18
2023-03-19T17:53:10.985Z,12.27
2023-03-19T17:55:37.715Z,11.75
2023-03-19T17:58:04.284Z,10.98
2023-03-19T18:00:31.042Z,9.75
2023-03-19T18:02:57.890Z,11.40
2023-03-19T18:05:26.108Z,12.02
2023-03-19T18:07:56.334Z,11.60
2023-03-19T18:10:29.716Z,11.85
2023-03-19T18:12:57.031Z,12.10
2023-03-19T18:15:23.974Z,11.98
2023-03-19T18:17:53.238Z,12.63
2023-03-19T18:20:22.174Z,12.27
2023-03-19T18:22:48.790Z,12.27
2023-03-19T18:25:18.551Z,12.70
2023-03-19T18:27:45.612Z,12.27
2023-03-19T18:30:14.778Z,11.93
2023-03-19T18:32:45.599Z,12.85
2023-03-19T18:35:16.532Z,12.90
2023-03-19T18:37:49.288Z,12.65
2023-03-19T18:40:19.377Z,10.45
2023-03-19T18:42:46.879Z,10.00
2023-03-19T18:45:13.685Z,12.25
2023-03-19T18:47:41.941Z,10.60
2023-03-19T18:50:29.858Z,10.02
2023-03-19T18:52:57.170Z,8.75
2023-03-19T18:55:28.274Z,11.73
2023-03-19T18:57:59.358Z,11.80
2023-03-19T19:00:35.145Z,11.90
2023-03-19T19:03:02.676Z,11.90
2023-03-19T19:05:31.478Z,12.00
2023-03-19T19:08:03.120Z,12.10
2023-03-19T19:10:35.897Z,12.25
2023-03-19T19:15:36.487Z,11.48
2023-03-19T19:18:24.038Z,12.48
2023-03-19T19:20:52.481Z,12.40
2023-03-19T19:23:20.943Z,12.10
2023-03-19T19:25:50.986Z,12.93
2023-03-19T19:28:35.043Z,12.32
2023-03-19T19:31:02.315Z,11.18
2023-03-19T19:33:34.706Z,12.23
2023-03-19T19:36:04.565Z,12.88
2023-03-19T19:38:31.307Z,14.77
2023-03-19T19:41:00.282Z,13.23
2023-03-19T19:43:31.094Z,13.77
2023-03-19T19:45:59.189Z,13.13
2023-03-19T19:48:28.178Z,12.02
2023-03-19T19:50:56.196Z,12.77
2023-03-19T19:53:29.486Z,11.90
2023-03-19T19:55:56.326Z,12.20
2023-03-19T19:58:30.911Z,10.65
2023-03-19T20:01:08.505Z,11.52
2023-03-19T20:03:35.530Z,11.70
2023-03-19T20:06:02.169Z,10.80
2023-03-19T20:08:29.132Z,10.73
2023-03-19T20:10:56.983Z,10.38
2023-03-19T20:13:29.575Z,10.93
2023-03-19T20:15:58.296Z,9.75
2023-03-19T20:18:30.454Z,11.07
2023-03-19T20:20:58.238Z,10.48
2023-03-19T20:23:25.640Z,10.00
2023-03-19T20:25:55.327Z,10.13
2023-03-19T20:28:32.518Z,10.02
2023-03-19T20:31:00.440Z,10.35
2023-03-19T20:33:30.774Z,9.93
2023-03-19T20:35:58.219Z,9.80
2023-03-19T20:38:27.172Z,11.60
2023-03-19T20:40:56.320Z,11.43
2023-03-19T20:43:28.395Z,11.40
2023-03-19T20:45:57.802Z,9.95
2023-03-19T20:48:26.386Z,10.07
2023-03-19T20:50:53.948Z,10.13
2023-03-19T20:53:20.726Z,10.73
2023-03-19T20:55:47.994Z,9.20
2023-03-19T20:58:17.447Z,9.70
2023-03-19T21:00:44.079Z,9.35
2023-03-19T21:03:17.072Z,9.65
2023-03-19T21:08:20.560Z,9.85
2023-03-19T21:10:49.149Z,9.38
2023-03-19T21:13:18.032Z,9.30
2023-03-19T21:15:50.901Z,8.57
2023-03-19T21:20:48.220Z,8.20
2023-03-19T21:23:23.129Z,8.20
2023-03-19T21:28:39.270Z,8.55
2023-03-19T21:31:06.510Z,7.90
2023-03-19T21:33:35.478Z,8.05
2023-03-19T21:36:03.330Z,8.95
2023-03-19T21:38:32.271Z,8.10
2023-03-19T21:41:06.677Z,7.97
2023-03-19T21:43:50.766Z,8.30
2023-03-19T21:46:35.974Z,8.18
2023-03-19T21:49:02.659Z,7.53
2023-03-19T21:51:29.610Z,8.40
2023-03-19T21:53:56.403Z,10.15
2023-03-19T21:56:32.714Z,11.05
2023-03-19T21:59:08.367Z,10.50
2023-03-19T22:01:34.922Z,10.88
2023-03-19T22:04:01.550Z,10.82
2023-03-19T22:06:28.130Z,11.57
2023-03-19T22:08:55.003Z,10.93
2023-03-19T22:11:34.609Z,11.43
2023-03-19T22:14:26.747Z,12.05
2023-03-19T22:17:09.781Z,11.60
2023-03-19T22:19:37.933Z,9.82
2023-03-19T22:22:04.502Z,9.18
2023-03-19T22:24:31.335Z,8.95
2023-03-19T22:26:58.340Z,8.63
2023-03-19T22:29:25.866Z,8.48
2023-03-19T22:31:53.712Z,8.95
2023-03-19T22:37:29.930Z,8.80
2023-03-19T22:39:56.547Z,8.13
2023-03-19T22:42:26.253Z,8.90
2023-03-19T22:44:54.586Z,8.18
2023-03-19T22:47:45.900Z,8.75
2023-03-19T22:50:22.841Z,9.00
2023-03-19T22:52:49.956Z,8.82
2023-03-19T22:55:16.981Z,9.00
2023-03-19T22:57:44.010Z,8.82
2023-03-19T23:00:19.794Z,8.32
2023-03-19T23:02:54.833Z,8.43
2023-03-19T23:05:26.846Z,8.85
2023-03-19T23:07:55.089Z,8.93
2023-03-19T23:10:23.714Z,8.90
2023-03-19T23:12:50.679Z,13.82
2023-03-19T23:15:36.051Z,26.08
2023-03-19T23:18:28.687Z,22.27
2023-03-19T23:21:03.171Z,14.60
2023-03-19T23:23:30.794Z,10.90
2023-03-19T23:25:57.666Z,9.80
2023-03-19T23:28:37.196Z,8.32
2023-03-19T23:31:03.939Z,9.25
2023-03-19T23:33:30.630Z,9.02
2023-03-19T23:36:02.674Z,8.50
2023-03-19T23:38:29.765Z,9.17
2023-03-19T23:40:56.751Z,8.95
2023-03-19T23:43:27.235Z,7.95
2023-03-19T23:46:12.722Z,8.93
2023-03-19T23:48:39.701Z,8.27
2023-03-19T23:51:06.572Z,8.48
2023-03-19T23:53:33.677Z,8.27
2023-03-19T23:56:03.519Z,8.35
2023-03-19T23:58:39.842Z,8.65
